CST,Max TemperatureF,Mean TemperatureF,Min TemperatureF,Max Dew PointF,MeanDew PointF,Min DewpointF,Max Humidity, Mean Humidity, Min Humidity, Max Sea Level PressureIn, Mean Sea Level PressureIn, Min Sea Level PressureIn, Max VisibilityMiles, Mean VisibilityMiles, Min VisibilityMiles, Max Wind SpeedMPH, Mean Wind SpeedMPH, Max Gust SpeedMPH,PrecipitationIn, CloudCover, Events, WindDirDegrees
2014-2-1,22,16,10,18,13,7,92,83,73,30.20,30.00,29.91,10,4,0,17,9,21,0.23,6,Fog-Snow,7
2014-2-2,14,2,-11,7,-6,-12,83,76,69,30.40,30.35,30.22,10,10,10,16,9,21,0.00,0,,296
2014-2-3,20,3,-15,4,-5,-16,92,71,49,30.45,30.41,30.38,10,9,5,9,3,13,0.00,0,Snow,188
2014-2-4,18,13,7,13,9,2,88,75,61,30.43,30.29,30.15,10,4,1,21,9,30,0.09,6,Snow,45
2014-2-5,17,5,-8,13,7,-13,88,81,73,30.57,30.34,30.13,10,4,1,24,16,28,0.03,6,Rain-Snow,327
2014-2-6,3,-6,-15,-6,-11,-18,87,76,65,30.60,30.53,30.47,10,10,10,18,11,21,0.00,0,,262
2014-2-7,13,3,-7,1,-5,-12,83,71,58,30.47,30.41,30.34,10,10,10,16,9,18,0.00,1,,230
2014-2-8,17,13,9,13,9,0,88,76,63,30.32,30.19,30.10,10,3,0,12,6,15,0.07,8,Fog-Snow,164
2014-2-9,14,2,-10,9,-3,-14,95,83,71,30.43,30.28,30.18,10,5,1,18,10,22,0.00,1,,295
2014-2-10,2,-10,-22,-6,-15,-24,91,78,65,30.58,30.52,30.42,10,10,9,12,7,14,0.00,0,Snow,288
2014-2-11,11,-6,-23,-2,-12,-27,100,82,63,30.61,30.51,30.35,10,9,6,14,5,,0.00,0,Snow,204
2014-2-12,23,13,2,13,6,-6,69,62,54,30.35,30.17,29.99,10,10,6,12,8,,T,6,,181
2014-2-13,37,25,12,28,15,6,75,68,60,29.99,29.75,29.59,10,9,5,30,15,40,T,2,Snow,239
2014-2-14,17,8,-1,9,5,-4,86,77,67,30.09,29.87,29.74,10,8,1,20,11,25,0.01,3,Snow,313
2014-2-15,20,7,-7,15,7,-10,91,76,61,30.14,30.01,29.91,10,5,0,11,8,12,0.03,5,Fog-Snow,172
2014-2-16,25,21,16,15,13,11,84,72,60,30.27,30.17,29.96,9,6,2,23,10,29,0.00,5,,4
2014-2-17,32,27,21,27,21,14,92,82,71,30.19,29.87,29.73,10,3,0,31,16,36,0.42,7,Fog-Rain-Snow,174
2014-2-18,48,32,15,30,25,16,92,67,42,29.94,29.76,29.64,10,10,2,25,12,31,0.00,0,,216
2014-2-19,40,30,20,31,27,20,92,81,70,29.99,29.92,29.77,10,8,1,17,8,22,T,1,Rain,253
2014-2-20,45,39,33,43,35,28,100,91,82,29.80,29.40,29.11,10,3,0,40,20,49,1.14,8,Fog-Rain-Snow-Thunderstorm,132
2014-2-21,35,29,22,27,20,15,85,69,53,29.89,29.69,29.45,10,9,2,44,22,52,T,4,Snow,268
2014-2-22,29,23,17,20,16,9,81,70,58,30.18,30.05,29.91,10,10,10,17,8,21,0.00,2,,304
2014-2-23,24,19,14,13,9,6,74,64,54,30.34,30.29,30.18,10,10,10,20,13,24,0.00,0,,308
2014-2-24,20,16,11,10,7,4,84,70,56,30.40,30.34,30.29,10,9,2,20,11,23,T,3,Snow,300
2014-2-25,15,9,2,10,3,-6,88,73,58,30.38,30.33,30.28,10,8,2,22,14,28,0.01,3,Snow,303
2014-2-26,20,8,-4,9,-3,-12,72,61,49,30.40,30.11,29.78,10,10,8,35,18,43,T,1,Snow,269
2014-2-27,15,8,0,3,-8,-13,69,58,46,30.24,30.13,29.81,10,10,10,37,12,45,0.00,0,,335
2014-2-28,33,17,1,20,8,-7,75,59,43,30.19,30.06,29.95,10,10,8,23,12,28,0.00,2,,126